sensor_id;sensor_type;location;lat;lon;timestamp;P1;durP1;ratioP1;P2;durP2;ratioP2
19587;SDS011;9940;47.252;8.696;2023-02-28T00:00:50;7.68;;;3.90;;
19587;SDS011;9940;47.252;8.696;2023-02-28T00:03:16;10.60;;;4.38;;
19587;SDS011;9940;47.252;8.696;2023-02-28T00:05:42;6.80;;;3.70;;
19587;SDS011;9940;47.252;8.696;2023-02-28T00:08:08;6.82;;;3.85;;
19587;SDS011;9940;47.252;8.696;2023-02-28T00:10:34;9.75;;;4.13;;
19587;SDS011;9940;47.252;8.696;2023-02-28T00:13:02;9.63;;;4.35;;
19587;SDS011;9940;47.252;8.696;2023-02-28T00:15:29;8.18;;;4.18;;
19587;SDS011;9940;47.252;8.696;2023-02-28T00:18:00;8.75;;;4.20;;
19587;SDS011;9940;47.252;8.696;2023-02-28T00:20:27;9.82;;;4.10;;
19587;SDS011;9940;47.252;8.696;2023-02-28T00:22:53;8.50;;;3.72;;
19587;SDS011;9940;47.252;8.696;2023-02-28T00:25:23;9.20;;;4.28;;
19587;SDS011;9940;47.252;8.696;2023-02-28T00:27:50;11.73;;;4.28;;
19587;SDS011;9940;47.252;8.696;2023-02-28T00:30:19;7.60;;;3.80;;
19587;SDS011;9940;47.252;8.696;2023-02-28T00:32:49;9.02;;;4.10;;
19587;SDS011;9940;47.252;8.696;2023-02-28T00:35:18;7.35;;;3.50;;
19587;SDS011;9940;47.252;8.696;2023-02-28T00:37:43;8.43;;;3.40;;
19587;SDS011;9940;47.252;8.696;2023-02-28T00:40:09;7.55;;;4.03;;
19587;SDS011;9940;47.252;8.696;2023-02-28T00:42:37;8.95;;;4.00;;
19587;SDS011;9940;47.252;8.696;2023-02-28T00:45:03;6.68;;;3.53;;
19587;SDS011;9940;47.252;8.696;2023-02-28T00:47:30;8.02;;;3.63;;
19587;SDS011;9940;47.252;8.696;2023-02-28T00:49:56;11.15;;;4.32;;
19587;SDS011;9940;47.252;8.696;2023-02-28T00:52:22;8.43;;;4.03;;
19587;SDS011;9940;47.252;8.696;2023-02-28T00:54:47;9.43;;;4.55;;
19587;SDS011;9940;47.252;8.696;2023-02-28T00:57:13;8.65;;;4.40;;
19587;SDS011;9940;47.252;8.696;2023-02-28T00:59:39;8.85;;;4.30;;
19587;SDS011;9940;47.252;8.696;2023-02-28T01:02:07;8.40;;;3.72;;
19587;SDS011;9940;47.252;8.696;2023-02-28T01:04:32;8.45;;;4.13;;
19587;SDS011;9940;47.252;8.696;2023-02-28T01:06:59;7.88;;;4.13;;
19587;SDS011;9940;47.252;8.696;2023-02-28T01:09:24;13.80;;;4.25;;
19587;SDS011;9940;47.252;8.696;2023-02-28T01:11:55;6.93;;;3.63;;
19587;SDS011;9940;47.252;8.696;2023-02-28T01:14:20;17.15;;;4.45;;
19587;SDS011;9940;47.252;8.696;2023-02-28T01:16:46;12.77;;;4.45;;
19587;SDS011;9940;47.252;8.696;2023-02-28T01:19:13;8.00;;;4.18;;
19587;SDS011;9940;47.252;8.696;2023-02-28T01:21:42;11.00;;;4.80;;
19587;SDS011;9940;47.252;8.696;2023-02-28T01:24:07;8.50;;;4.20;;
19587;SDS011;9940;47.252;8.696;2023-02-28T01:26:33;11.18;;;4.18;;
19587;SDS011;9940;47.252;8.696;2023-02-28T01:28:58;8.45;;;4.15;;
19587;SDS011;9940;47.252;8.696;2023-02-28T01:31:24;9.00;;;4.13;;
19587;SDS011;9940;47.252;8.696;2023-02-28T01:33:51;8.70;;;4.57;;
19587;SDS011;9940;47.252;8.696;2023-02-28T01:36:20;9.05;;;4.25;;
19587;SDS011;9940;47.252;8.696;2023-02-28T01:38:47;10.25;;;4.72;;
19587;SDS011;9940;47.252;8.696;2023-02-28T01:41:32;8.38;;;4.03;;
19587;SDS011;9940;47.252;8.696;2023-02-28T01:47:02;11.45;;;4.85;;
19587;SDS011;9940;47.252;8.696;2023-02-28T01:49:27;10.20;;;4.57;;
19587;SDS011;9940;47.252;8.696;2023-02-28T01:51:55;11.45;;;4.45;;
19587;SDS011;9940;47.252;8.696;2023-02-28T01:54:29;10.05;;;4.35;;
19587;SDS011;9940;47.252;8.696;2023-02-28T01:57:00;10.10;;;4.75;;
19587;SDS011;9940;47.252;8.696;2023-02-28T01:59:33;7.78;;;3.25;;
19587;SDS011;9940;47.252;8.696;2023-02-28T02:02:13;9.85;;;4.90;;
19587;SDS011;9940;47.252;8.696;2023-02-28T02:04:42;9.00;;;4.53;;
19587;SDS011;9940;47.252;8.696;2023-02-28T02:07:21;13.30;;;4.95;;
19587;SDS011;9940;47.252;8.696;2023-02-28T02:09:49;7.95;;;4.03;;
19587;SDS011;9940;47.252;8.696;2023-02-28T02:12:26;8.77;;;4.15;;
19587;SDS011;9940;47.252;8.696;2023-02-28T02:15:03;9.88;;;4.53;;
19587;SDS011;9940;47.252;8.696;2023-02-28T02:17:44;9.38;;;4.55;;
19587;SDS011;9940;47.252;8.696;2023-02-28T02:23:25;11.18;;;4.70;;
19587;SDS011;9940;47.252;8.696;2023-02-28T02:26:04;9.73;;;4.40;;
19587;SDS011;9940;47.252;8.696;2023-02-28T02:34:56;11.23;;;4.57;;
19587;SDS011;9940;47.252;8.696;2023-02-28T02:40:20;10.85;;;4.95;;
19587;SDS011;9940;47.252;8.696;2023-02-28T02:45:32;10.90;;;5.00;;
19587;SDS011;9940;47.252;8.696;2023-02-28T02:48:06;10.55;;;4.68;;
19587;SDS011;9940;47.252;8.696;2023-02-28T02:50:38;9.50;;;4.45;;
19587;SDS011;9940;47.252;8.696;2023-02-28T02:53:07;9.93;;;4.50;;
19587;SDS011;9940;47.252;8.696;2023-02-28T02:55:36;8.73;;;4.72;;
19587;SDS011;9940;47.252;8.696;2023-02-28T02:58:06;11.23;;;5.35;;
19587;SDS011;9940;47.252;8.696;2023-02-28T03:00:43;12.13;;;5.45;;
19587;SDS011;9940;47.252;8.696;2023-02-28T03:03:15;9.45;;;4.43;;
19587;SDS011;9940;47.252;8.696;2023-02-28T03:05:56;12.15;;;4.97;;
19587;SDS011;9940;47.252;8.696;2023-02-28T03:08:23;12.02;;;5.35;;
19587;SDS011;9940;47.252;8.696;2023-02-28T03:10:51;11.25;;;4.63;;
19587;SDS011;9940;47.252;8.696;2023-02-28T03:17:12;12.73;;;4.57;;
19587;SDS011;9940;47.252;8.696;2023-02-28T03:22:04;12.07;;;4.72;;
19587;SDS011;9940;47.252;8.696;2023-02-28T03:27:40;9.35;;;4.45;;
19587;SDS011;9940;47.252;8.696;2023-02-28T03:30:23;10.52;;;4.80;;
19587;SDS011;9940;47.252;8.696;2023-02-28T03:35:37;10.43;;;5.22;;
19587;SDS011;9940;47.252;8.696;2023-02-28T03:38:08;10.38;;;5.22;;
19587;SDS011;9940;47.252;8.696;2023-02-28T03:40:44;8.57;;;4.63;;
19587;SDS011;9940;47.252;8.696;2023-02-28T03:43:14;14.85;;;4.80;;
19587;SDS011;9940;47.252;8.696;2023-02-28T03:45:50;9.88;;;5.13;;
19587;SDS011;9940;47.252;8.696;2023-02-28T03:48:25;10.40;;;5.22;;
19587;SDS011;9940;47.252;8.696;2023-02-28T03:50:57;11.15;;;5.20;;
19587;SDS011;9940;47.252;8.696;2023-02-28T03:53:34;9.73;;;4.75;;
19587;SDS011;9940;47.252;8.696;2023-02-28T03:56:12;11.35;;;4.82;;
19587;SDS011;9940;47.252;8.696;2023-02-28T03:58:48;10.38;;;4.70;;
19587;SDS011;9940;47.252;8.696;2023-02-28T04:01:26;8.98;;;4.40;;
19587;SDS011;9940;47.252;8.696;2023-02-28T04:03:57;11.93;;;5.18;;
19587;SDS011;9940;47.252;8.696;2023-02-28T04:06:23;9.95;;;4.28;;
19587;SDS011;9940;47.252;8.696;2023-02-28T04:08:49;14.02;;;5.18;;
19587;SDS011;9940;47.252;8.696;2023-02-28T04:11:20;12.98;;;4.57;;
19587;SDS011;9940;47.252;8.696;2023-02-28T04:13:55;12.88;;;4.97;;
19587;SDS011;9940;47.252;8.696;2023-02-28T04:16:23;11.77;;;5.47;;
19587;SDS011;9940;47.252;8.696;2023-02-28T04:18:53;11.23;;;4.93;;
19587;SDS011;9940;47.252;8.696;2023-02-28T04:21:21;10.60;;;3.97;;
19587;SDS011;9940;47.252;8.696;2023-02-28T04:23:47;11.10;;;5.05;;
19587;SDS011;9940;47.252;8.696;2023-02-28T04:26:12;10.95;;;4.82;;
19587;SDS011;9940;47.252;8.696;2023-02-28T04:28:38;10.95;;;5.35;;
19587;SDS011;9940;47.252;8.696;2023-02-28T04:31:04;10.57;;;4.68;;
19587;SDS011;9940;47.252;8.696;2023-02-28T04:33:32;9.88;;;4.38;;
19587;SDS011;9940;47.252;8.696;2023-02-28T04:36:01;12.77;;;5.05;;
19587;SDS011;9940;47.252;8.696;2023-02-28T04:38:33;10.80;;;5.10;;
19587;SDS011;9940;47.252;8.696;2023-02-28T04:41:00;10.10;;;4.85;;
19587;SDS011;9940;47.252;8.696;2023-02-28T04:43:26;12.02;;;4.75;;
19587;SDS011;9940;47.252;8.696;2023-02-28T04:45:55;10.13;;;4.57;;
19587;SDS011;9940;47.252;8.696;2023-02-28T04:48:26;10.27;;;4.78;;
19587;SDS011;9940;47.252;8.696;2023-02-28T04:50:59;10.50;;;5.05;;
19587;SDS011;9940;47.252;8.696;2023-02-28T04:53:29;9.90;;;4.45;;
19587;SDS011;9940;47.252;8.696;2023-02-28T04:55:55;12.05;;;5.15;;
19587;SDS011;9940;47.252;8.696;2023-02-28T04:58:25;13.10;;;5.40;;
19587;SDS011;9940;47.252;8.696;2023-02-28T05:00:53;11.02;;;4.63;;
19587;SDS011;9940;47.252;8.696;2023-02-28T05:03:25;9.65;;;4.05;;
19587;SDS011;9940;47.252;8.696;2023-02-28T05:05:51;11.35;;;4.75;;
19587;SDS011;9940;47.252;8.696;2023-02-28T05:08:17;13.85;;;4.88;;
19587;SDS011;9940;47.252;8.696;2023-02-28T05:10:45;10.73;;;4.80;;
19587;SDS011;9940;47.252;8.696;2023-02-28T05:13:11;10.68;;;4.30;;
19587;SDS011;9940;47.252;8.696;2023-02-28T05:15:37;8.80;;;4.35;;
19587;SDS011;9940;47.252;8.696;2023-02-28T05:18:03;10.20;;;4.97;;
19587;SDS011;9940;47.252;8.696;2023-02-28T05:20:28;9.20;;;4.20;;
19587;SDS011;9940;47.252;8.696;2023-02-28T05:22:54;8.63;;;4.55;;
19587;SDS011;9940;47.252;8.696;2023-02-28T05:25:26;9.95;;;4.43;;
19587;SDS011;9940;47.252;8.696;2023-02-28T05:27:51;12.55;;;4.63;;
19587;SDS011;9940;47.252;8.696;2023-02-28T05:30:17;9.45;;;4.50;;
19587;SDS011;9940;47.252;8.696;2023-02-28T05:32:43;11.05;;;4.57;;
19587;SDS011;9940;47.252;8.696;2023-02-28T05:35:10;9.80;;;4.75;;
19587;SDS011;9940;47.252;8.696;2023-02-28T05:37:37;11.70;;;4.40;;
19587;SDS011;9940;47.252;8.696;2023-02-28T05:40:04;10.55;;;4.88;;
19587;SDS011;9940;47.252;8.696;2023-02-28T05:42:36;11.73;;;4.68;;
19587;SDS011;9940;47.252;8.696;2023-02-28T05:45:02;10.10;;;4.57;;
19587;SDS011;9940;47.252;8.696;2023-02-28T05:47:29;11.20;;;4.68;;
19587;SDS011;9940;47.252;8.696;2023-02-28T05:49:57;10.70;;;4.57;;
19587;SDS011;9940;47.252;8.696;2023-02-28T05:52:25;10.52;;;4.47;;
19587;SDS011;9940;47.252;8.696;2023-02-28T05:54:50;10.40;;;4.40;;
19587;SDS011;9940;47.252;8.696;2023-02-28T05:57:16;11.88;;;4.80;;
19587;SDS011;9940;47.252;8.696;2023-02-28T05:59:42;9.52;;;4.10;;
19587;SDS011;9940;47.252;8.696;2023-02-28T06:02:10;10.68;;;4.93;;
19587;SDS011;9940;47.252;8.696;2023-02-28T06:04:39;9.98;;;4.50;;
19587;SDS011;9940;47.252;8.696;2023-02-28T06:07:05;9.00;;;4.40;;
19587;SDS011;9940;47.252;8.696;2023-02-28T06:09:32;11.75;;;5.00;;
19587;SDS011;9940;47.252;8.696;2023-02-28T06:12:04;10.53;;;4.70;;
19587;SDS011;9940;47.252;8.696;2023-02-28T06:14:32;10.48;;;4.13;;
19587;SDS011;9940;47.252;8.696;2023-02-28T06:16:59;11.02;;;4.82;;
19587;SDS011;9940;47.252;8.696;2023-02-28T06:19:26;9.73;;;4.95;;
19587;SDS011;9940;47.252;8.696;2023-02-28T06:21:52;14.85;;;4.93;;
19587;SDS011;9940;47.252;8.696;2023-02-28T06:24:19;12.02;;;4.95;;
19587;SDS011;9940;47.252;8.696;2023-02-28T06:26:45;9.63;;;4.97;;
19587;SDS011;9940;47.252;8.696;2023-02-28T06:29:11;13.68;;;4.45;;
19587;SDS011;9940;47.252;8.696;2023-02-28T06:31:37;10.00;;;4.70;;
19587;SDS011;9940;47.252;8.696;2023-02-28T06:34:06;10.88;;;4.88;;
19587;SDS011;9940;47.252;8.696;2023-02-28T06:36:31;14.80;;;4.90;;
19587;SDS011;9940;47.252;8.696;2023-02-28T06:38:57;11.07;;;4.72;;
19587;SDS011;9940;47.252;8.696;2023-02-28T06:41:26;11.20;;;5.03;;
19587;SDS011;9940;47.252;8.696;2023-02-28T06:43:52;11.93;;;5.30;;
19587;SDS011;9940;47.252;8.696;2023-02-28T06:46:20;13.43;;;4.82;;
19587;SDS011;9940;47.252;8.696;2023-02-28T06:48:47;9.48;;;4.82;;
19587;SDS011;9940;47.252;8.696;2023-02-28T06:51:16;11.95;;;5.18;;
19587;SDS011;9940;47.252;8.696;2023-02-28T06:56:13;9.82;;;4.53;;
19587;SDS011;9940;47.252;8.696;2023-02-28T06:58:40;10.07;;;4.53;;
19587;SDS011;9940;47.252;8.696;2023-02-28T07:01:08;15.68;;;5.32;;
19587;SDS011;9940;47.252;8.696;2023-02-28T07:03:34;9.80;;;4.78;;
19587;SDS011;9940;47.252;8.696;2023-02-28T07:06:05;8.63;;;4.07;;
19587;SDS011;9940;47.252;8.696;2023-02-28T07:08:32;11.07;;;4.55;;
19587;SDS011;9940;47.252;8.696;2023-02-28T07:10:58;9.60;;;4.55;;
19587;SDS011;9940;47.252;8.696;2023-02-28T07:13:24;10.05;;;4.85;;
19587;SDS011;9940;47.252;8.696;2023-02-28T07:15:53;12.43;;;4.78;;
19587;SDS011;9940;47.252;8.696;2023-02-28T07:18:29;12.00;;;4.68;;
19587;SDS011;9940;47.252;8.696;2023-02-28T07:20:55;13.32;;;4.97;;
19587;SDS011;9940;47.252;8.696;2023-02-28T07:23:23;12.45;;;4.95;;
19587;SDS011;9940;47.252;8.696;2023-02-28T07:25:51;12.02;;;4.80;;
19587;SDS011;9940;47.252;8.696;2023-02-28T07:28:19;13.23;;;5.25;;
19587;SDS011;9940;47.252;8.696;2023-02-28T07:30:47;10.90;;;5.13;;
19587;SDS011;9940;47.252;8.696;2023-02-28T07:33:13;10.05;;;4.70;;
19587;SDS011;9940;47.252;8.696;2023-02-28T07:35:41;13.95;;;4.90;;
19587;SDS011;9940;47.252;8.696;2023-02-28T07:38:06;13.60;;;5.00;;
19587;SDS011;9940;47.252;8.696;2023-02-28T07:40:33;10.13;;;4.38;;
19587;SDS011;9940;47.252;8.696;2023-02-28T07:43:00;11.20;;;4.78;;
19587;SDS011;9940;47.252;8.696;2023-02-28T07:45:26;10.77;;;4.60;;
19587;SDS011;9940;47.252;8.696;2023-02-28T07:47:53;9.30;;;4.65;;
19587;SDS011;9940;47.252;8.696;2023-02-28T07:50:21;12.40;;;4.90;;
19587;SDS011;9940;47.252;8.696;2023-02-28T07:52:50;12.18;;;4.88;;
19587;SDS011;9940;47.252;8.696;2023-02-28T07:55:17;10.95;;;4.72;;
19587;SDS011;9940;47.252;8.696;2023-02-28T07:57:43;12.32;;;4.97;;
19587;SDS011;9940;47.252;8.696;2023-02-28T08:00:10;10.00;;;5.20;;
19587;SDS011;9940;47.252;8.696;2023-02-28T08:02:37;11.73;;;4.90;;
19587;SDS011;9940;47.252;8.696;2023-02-28T08:05:03;9.88;;;4.85;;
19587;SDS011;9940;47.252;8.696;2023-02-28T08:07:30;14.68;;;5.32;;
19587;SDS011;9940;47.252;8.696;2023-02-28T08:09:56;11.27;;;5.13;;
19587;SDS011;9940;47.252;8.696;2023-02-28T08:12:24;12.85;;;4.90;;
19587;SDS011;9940;47.252;8.696;2023-02-28T08:14:49;9.30;;;4.28;;
19587;SDS011;9940;47.252;8.696;2023-02-28T08:17:15;13.05;;;5.22;;
19587;SDS011;9940;47.252;8.696;2023-02-28T08:19:44;13.38;;;5.22;;
19587;SDS011;9940;47.252;8.696;2023-02-28T08:22:10;12.73;;;5.35;;
19587;SDS011;9940;47.252;8.696;2023-02-28T08:24:41;10.60;;;4.88;;
19587;SDS011;9940;47.252;8.696;2023-02-28T08:27:10;10.10;;;4.93;;
19587;SDS011;9940;47.252;8.696;2023-02-28T08:29:38;12.95;;;5.07;;
19587;SDS011;9940;47.252;8.696;2023-02-28T08:32:05;11.13;;;4.78;;
19587;SDS011;9940;47.252;8.696;2023-02-28T08:34:32;8.50;;;4.50;;
19587;SDS011;9940;47.252;8.696;2023-02-28T08:36:57;12.68;;;5.00;;
19587;SDS011;9940;47.252;8.696;2023-02-28T08:39:23;11.48;;;4.72;;
19587;SDS011;9940;47.252;8.696;2023-02-28T08:41:49;9.88;;;4.57;;
19587;SDS011;9940;47.252;8.696;2023-02-28T08:44:14;12.20;;;5.03;;
19587;SDS011;9940;47.252;8.696;2023-02-28T08:46:40;11.88;;;5.20;;
19587;SDS011;9940;47.252;8.696;2023-02-28T08:49:05;9.43;;;4.60;;
19587;SDS011;9940;47.252;8.696;2023-02-28T08:51:35;12.07;;;4.97;;
19587;SDS011;9940;47.252;8.696;2023-02-28T08:54:01;12.48;;;4.72;;
19587;SDS011;9940;47.252;8.696;2023-02-28T08:56:29;11.57;;;4.88;;
19587;SDS011;9940;47.252;8.696;2023-02-28T08:58:56;9.80;;;4.65;;
19587;SDS011;9940;47.252;8.696;2023-02-28T09:01:26;10.98;;;4.88;;
19587;SDS011;9940;47.252;8.696;2023-02-28T09:03:56;10.93;;;4.82;;
19587;SDS011;9940;47.252;8.696;2023-02-28T09:06:23;11.73;;;5.10;;
19587;SDS011;9940;47.252;8.696;2023-02-28T09:08:50;8.88;;;4.55;;
19587;SDS011;9940;47.252;8.696;2023-02-28T09:11:19;11.95;;;5.20;;
19587;SDS011;9940;47.252;8.696;2023-02-28T09:13:45;11.18;;;4.85;;
19587;SDS011;9940;47.252;8.696;2023-02-28T09:16:12;12.13;;;5.07;;
19587;SDS011;9940;47.252;8.696;2023-02-28T09:18:39;11.18;;;5.18;;
19587;SDS011;9940;47.252;8.696;2023-02-28T09:21:09;11.90;;;4.45;;
19587;SDS011;9940;47.252;8.696;2023-02-28T09:23:39;11.05;;;4.68;;
19587;SDS011;9940;47.252;8.696;2023-02-28T09:26:06;13.40;;;4.65;;
19587;SDS011;9940;47.252;8.696;2023-02-28T09:28:32;12.55;;;5.55;;
19587;SDS011;9940;47.252;8.696;2023-02-28T09:30:58;12.55;;;4.82;;
19587;SDS011;9940;47.252;8.696;2023-02-28T09:33:24;12.13;;;4.75;;
19587;SDS011;9940;47.252;8.696;2023-02-28T09:35:50;10.18;;;4.38;;
19587;SDS011;9940;47.252;8.696;2023-02-28T09:38:22;11.82;;;5.47;;
19587;SDS011;9940;47.252;8.696;2023-02-28T09:40:52;12.45;;;4.93;;
19587;SDS011;9940;47.252;8.696;2023-02-28T09:43:22;9.05;;;4.75;;
19587;SDS011;9940;47.252;8.696;2023-02-28T09:45:52;11.88;;;5.05;;
19587;SDS011;9940;47.252;8.696;2023-02-28T09:48:29;11.52;;;4.97;;
19587;SDS011;9940;47.252;8.696;2023-02-28T09:51:04;11.50;;;4.72;;
19587;SDS011;9940;47.252;8.696;2023-02-28T09:53:37;11.02;;;5.07;;
19587;SDS011;9940;47.252;8.696;2023-02-28T10:04:44;10.73;;;4.65;;
19587;SDS011;9940;47.252;8.696;2023-02-28T10:07:33;10.75;;;4.63;;
19587;SDS011;9940;47.252;8.696;2023-02-28T10:10:17;11.57;;;4.75;;
19587;SDS011;9940;47.252;8.696;2023-02-28T10:12:45;11.07;;;4.93;;
19587;SDS011;9940;47.252;8.696;2023-02-28T10:15:15;10.88;;;5.30;;
19587;SDS011;9940;47.252;8.696;2023-02-28T10:17:42;10.38;;;4.40;;
19587;SDS011;9940;47.252;8.696;2023-02-28T10:22:45;11.07;;;5.25;;
19587;SDS011;9940;47.252;8.696;2023-02-28T10:25:21;11.48;;;5.35;;
19587;SDS011;9940;47.252;8.696;2023-02-28T10:27:50;10.27;;;4.50;;
19587;SDS011;9940;47.252;8.696;2023-02-28T10:30:19;12.57;;;4.80;;
19587;SDS011;9940;47.252;8.696;2023-02-28T10:32:47;11.32;;;4.63;;
19587;SDS011;9940;47.252;8.696;2023-02-28T10:35:19;12.52;;;4.82;;
19587;SDS011;9940;47.252;8.696;2023-02-28T10:37:50;11.85;;;5.22;;
19587;SDS011;9940;47.252;8.696;2023-02-28T10:42:57;10.77;;;4.88;;
19587;SDS011;9940;47.252;8.696;2023-02-28T10:45:26;14.95;;;4.65;;
19587;SDS011;9940;47.252;8.696;2023-02-28T10:50:52;10.55;;;4.28;;
19587;SDS011;9940;47.252;8.696;2023-02-28T10:56:03;11.25;;;4.93;;
19587;SDS011;9940;47.252;8.696;2023-02-28T11:01:22;12.00;;;5.70;;
19587;SDS011;9940;47.252;8.696;2023-02-28T11:06:44;10.10;;;5.13;;
19587;SDS011;9940;47.252;8.696;2023-02-28T11:09:24;13.32;;;5.25;;
19587;SDS011;9940;47.252;8.696;2023-02-28T11:12:02;11.32;;;4.88;;
19587;SDS011;9940;47.252;8.696;2023-02-28T11:14:33;15.65;;;5.47;;
19587;SDS011;9940;47.252;8.696;2023-02-28T11:17:23;10.70;;;5.40;;
19587;SDS011;9940;47.252;8.696;2023-02-28T11:19:54;11.45;;;4.80;;
19587;SDS011;9940;47.252;8.696;2023-02-28T11:22:24;10.75;;;4.93;;
19587;SDS011;9940;47.252;8.696;2023-02-28T11:24:57;14.68;;;6.40;;
19587;SDS011;9940;47.252;8.696;2023-02-28T11:27:42;13.63;;;5.65;;
19587;SDS011;9940;47.252;8.696;2023-02-28T11:32:59;13.30;;;5.55;;
19587;SDS011;9940;47.252;8.696;2023-02-28T11:38:03;12.88;;;5.40;;
19587;SDS011;9940;47.252;8.696;2023-02-28T11:48:40;12.57;;;5.28;;
19587;SDS011;9940;47.252;8.696;2023-02-28T11:51:35;11.40;;;5.40;;
19587;SDS011;9940;47.252;8.696;2023-02-28T11:54:12;11.00;;;5.00;;
19587;SDS011;9940;47.252;8.696;2023-02-28T11:56:57;10.90;;;5.18;;
19587;SDS011;9940;47.252;8.696;2023-02-28T12:02:28;10.95;;;5.65;;
19587;SDS011;9940;47.252;8.696;2023-02-28T12:07:43;10.32;;;5.30;;
19587;SDS011;9940;47.252;8.696;2023-02-28T12:10:25;11.38;;;4.95;;
19587;SDS011;9940;47.252;8.696;2023-02-28T12:13:09;9.82;;;5.07;;
19587;SDS011;9940;47.252;8.696;2023-02-28T12:18:55;13.05;;;5.25;;
19587;SDS011;9940;47.252;8.696;2023-02-28T12:27:15;13.73;;;5.63;;
19587;SDS011;9940;47.252;8.696;2023-02-28T12:29:58;13.63;;;5.85;;
19587;SDS011;9940;47.252;8.696;2023-02-28T12:32:34;12.60;;;5.15;;
19587;SDS011;9940;47.252;8.696;2023-02-28T12:35:12;12.77;;;5.43;;
19587;SDS011;9940;47.252;8.696;2023-02-28T12:40:22;10.40;;;5.05;;
19587;SDS011;9940;47.252;8.696;2023-02-28T12:42:58;11.02;;;5.50;;
19587;SDS011;9940;47.252;8.696;2023-02-28T12:48:06;13.85;;;5.80;;
19587;SDS011;9940;47.252;8.696;2023-02-28T12:50:38;12.57;;;5.57;;
19587;SDS011;9940;47.252;8.696;2023-02-28T13:03:32;11.88;;;5.78;;
19587;SDS011;9940;47.252;8.696;2023-02-28T13:09:30;18.42;;;7.30;;
19587;SDS011;9940;47.252;8.696;2023-02-28T13:11:55;12.50;;;6.03;;
19587;SDS011;9940;47.252;8.696;2023-02-28T13:17:02;15.70;;;6.47;;
19587;SDS011;9940;47.252;8.696;2023-02-28T13:22:18;16.00;;;6.57;;
19587;SDS011;9940;47.252;8.696;2023-02-28T13:25:50;12.85;;;5.70;;
19587;SDS011;9940;47.252;8.696;2023-02-28T13:27:51;10.27;;;5.20;;
19587;SDS011;9940;47.252;8.696;2023-02-28T13:44:01;11.88;;;5.50;;
19587;SDS011;9940;47.252;8.696;2023-02-28T13:46:37;16.83;;;5.72;;
19587;SDS011;9940;47.252;8.696;2023-02-28T13:49:31;13.25;;;5.80;;
19587;SDS011;9940;47.252;8.696;2023-02-28T13:54:56;14.23;;;5.47;;
19587;SDS011;9940;47.252;8.696;2023-02-28T14:11:25;17.17;;;6.65;;
19587;SDS011;9940;47.252;8.696;2023-02-28T14:13:53;12.88;;;6.15;;
19587;SDS011;9940;47.252;8.696;2023-02-28T14:16:23;16.33;;;6.50;;
19587;SDS011;9940;47.252;8.696;2023-02-28T14:21:35;14.75;;;6.13;;
19587;SDS011;9940;47.252;8.696;2023-02-28T14:38:47;14.10;;;6.55;;
19587;SDS011;9940;47.252;8.696;2023-02-28T14:41:40;15.23;;;6.18;;
19587;SDS011;9940;47.252;8.696;2023-02-28T14:44:24;12.80;;;6.25;;
19587;SDS011;9940;47.252;8.696;2023-02-28T14:49:42;12.73;;;6.28;;
19587;SDS011;9940;47.252;8.696;2023-02-28T14:52:20;12.93;;;6.53;;
19587;SDS011;9940;47.252;8.696;2023-02-28T14:54:52;16.52;;;5.90;;
19587;SDS011;9940;47.252;8.696;2023-02-28T14:57:53;12.98;;;5.97;;
19587;SDS011;9940;47.252;8.696;2023-02-28T15:02:49;13.15;;;6.10;;
19587;SDS011;9940;47.252;8.696;2023-02-28T15:05:19;11.75;;;5.88;;
19587;SDS011;9940;47.252;8.696;2023-02-28T15:07:47;13.10;;;6.13;;
19587;SDS011;9940;47.252;8.696;2023-02-28T15:12:45;14.07;;;6.13;;
19587;SDS011;9940;47.252;8.696;2023-02-28T15:15:16;13.68;;;6.47;;
19587;SDS011;9940;47.252;8.696;2023-02-28T15:17:46;13.75;;;6.28;;
19587;SDS011;9940;47.252;8.696;2023-02-28T15:20:21;15.80;;;6.40;;
19587;SDS011;9940;47.252;8.696;2023-02-28T15:22:48;17.73;;;6.25;;
19587;SDS011;9940;47.252;8.696;2023-02-28T15:25:18;13.95;;;6.30;;
19587;SDS011;9940;47.252;8.696;2023-02-28T15:27:51;13.80;;;6.10;;
19587;SDS011;9940;47.252;8.696;2023-02-28T15:30:26;16.30;;;6.25;;
19587;SDS011;9940;47.252;8.696;2023-02-28T15:35:40;12.75;;;5.68;;
19587;SDS011;9940;47.252;8.696;2023-02-28T15:40:42;14.50;;;5.97;;
19587;SDS011;9940;47.252;8.696;2023-02-28T15:43:16;15.43;;;6.25;;
19587;SDS011;9940;47.252;8.696;2023-02-28T15:48:44;12.63;;;6.35;;
19587;SDS011;9940;47.252;8.696;2023-02-28T15:51:36;14.75;;;6.20;;
19587;SDS011;9940;47.252;8.696;2023-02-28T15:54:06;16.02;;;6.50;;
19587;SDS011;9940;47.252;8.696;2023-02-28T15:56:46;16.02;;;6.65;;
19587;SDS011;9940;47.252;8.696;2023-02-28T15:59:50;15.18;;;6.63;;
19587;SDS011;9940;47.252;8.696;2023-02-28T16:10:09;15.52;;;6.28;;
19587;SDS011;9940;47.252;8.696;2023-02-28T16:12:36;17.55;;;6.50;;
19587;SDS011;9940;47.252;8.696;2023-02-28T16:15:06;14.32;;;6.20;;
19587;SDS011;9940;47.252;8.696;2023-02-28T16:17:41;21.45;;;6.65;;
19587;SDS011;9940;47.252;8.696;2023-02-28T16:20:14;12.68;;;5.82;;
19587;SDS011;9940;47.252;8.696;2023-02-28T16:22:47;14.52;;;5.78;;
19587;SDS011;9940;47.252;8.696;2023-02-28T16:25:13;17.15;;;6.88;;
19587;SDS011;9940;47.252;8.696;2023-02-28T16:27:43;14.52;;;6.07;;
19587;SDS011;9940;47.252;8.696;2023-02-28T16:30:16;17.38;;;7.50;;
19587;SDS011;9940;47.252;8.696;2023-02-28T16:32:45;16.00;;;6.65;;
19587;SDS011;9940;47.252;8.696;2023-02-28T16:35:13;15.20;;;7.10;;
19587;SDS011;9940;47.252;8.696;2023-02-28T16:37:42;15.02;;;7.03;;
19587;SDS011;9940;47.252;8.696;2023-02-28T16:40:12;17.67;;;7.35;;
19587;SDS011;9940;47.252;8.696;2023-02-28T16:42:40;16.95;;;7.10;;
19587;SDS011;9940;47.252;8.696;2023-02-28T16:45:06;17.30;;;7.25;;
19587;SDS011;9940;47.252;8.696;2023-02-28T16:47:36;17.25;;;7.20;;
19587;SDS011;9940;47.252;8.696;2023-02-28T16:50:09;17.30;;;7.72;;
19587;SDS011;9940;47.252;8.696;2023-02-28T16:52:38;17.90;;;7.43;;
19587;SDS011;9940;47.252;8.696;2023-02-28T16:55:04;17.15;;;7.50;;
19587;SDS011;9940;47.252;8.696;2023-02-28T16:57:32;15.18;;;6.50;;
19587;SDS011;9940;47.252;8.696;2023-02-28T16:59:58;17.50;;;6.95;;
19587;SDS011;9940;47.252;8.696;2023-02-28T17:02:26;18.83;;;7.70;;
19587;SDS011;9940;47.252;8.696;2023-02-28T17:04:51;16.42;;;7.03;;
19587;SDS011;9940;47.252;8.696;2023-02-28T17:07:22;18.35;;;7.30;;
19587;SDS011;9940;47.252;8.696;2023-02-28T17:09:48;16.30;;;7.28;;
19587;SDS011;9940;47.252;8.696;2023-02-28T17:12:16;19.67;;;7.35;;
19587;SDS011;9940;47.252;8.696;2023-02-28T17:14:42;16.52;;;7.10;;
19587;SDS011;9940;47.252;8.696;2023-02-28T17:17:10;18.08;;;7.30;;
19587;SDS011;9940;47.252;8.696;2023-02-28T17:19:43;14.80;;;6.90;;
19587;SDS011;9940;47.252;8.696;2023-02-28T17:22:09;20.95;;;7.38;;
19587;SDS011;9940;47.252;8.696;2023-02-28T17:24:35;16.88;;;7.22;;
19587;SDS011;9940;47.252;8.696;2023-02-28T17:27:01;19.05;;;7.82;;
19587;SDS011;9940;47.252;8.696;2023-02-28T17:29:27;18.77;;;7.25;;
19587;SDS011;9940;47.252;8.696;2023-02-28T17:31:53;17.58;;;7.20;;
19587;SDS011;9940;47.252;8.696;2023-02-28T17:34:21;18.90;;;7.82;;
19587;SDS011;9940;47.252;8.696;2023-02-28T17:36:48;17.02;;;7.05;;
19587;SDS011;9940;47.252;8.696;2023-02-28T17:39:15;19.83;;;8.05;;
19587;SDS011;9940;47.252;8.696;2023-02-28T17:41:52;21.00;;;7.40;;
19587;SDS011;9940;47.252;8.696;2023-02-28T17:44:19;17.75;;;7.40;;
19587;SDS011;9940;47.252;8.696;2023-02-28T17:46:45;18.48;;;7.80;;
19587;SDS011;9940;47.252;8.696;2023-02-28T17:49:11;20.15;;;7.72;;
19587;SDS011;9940;47.252;8.696;2023-02-28T17:51:37;19.70;;;8.05;;
19587;SDS011;9940;47.252;8.696;2023-02-28T17:54:03;15.90;;;7.20;;
19587;SDS011;9940;47.252;8.696;2023-02-28T17:56:30;19.05;;;6.93;;
19587;SDS011;9940;47.252;8.696;2023-02-28T17:58:56;18.67;;;7.53;;
19587;SDS011;9940;47.252;8.696;2023-02-28T18:01:22;23.15;;;8.10;;
19587;SDS011;9940;47.252;8.696;2023-02-28T18:03:51;17.13;;;7.25;;
19587;SDS011;9940;47.252;8.696;2023-02-28T18:06:22;21.90;;;7.88;;
19587;SDS011;9940;47.252;8.696;2023-02-28T18:09:00;17.83;;;6.88;;